createdAt,value
2022-08-30T00:00:18.330Z,22.48
2022-08-30T00:02:45.837Z,22.50
2022-08-30T00:05:17.656Z,22.41
2022-08-30T00:07:46.187Z,22.36
2022-08-30T00:10:13.630Z,22.21
2022-08-30T00:12:43.597Z,22.31
2022-08-30T00:15:13.210Z,22.30
2022-08-30T00:17:43.532Z,22.27
2022-08-30T00:20:15.771Z,22.30
2022-08-30T00:22:43.966Z,22.20
2022-08-30T00:25:14.257Z,22.21
2022-08-30T00:27:42.987Z,22.15
2022-08-30T00:30:13.983Z,22.13
2022-08-30T00:32:41.539Z,22.13
2022-08-30T00:35:10.964Z,22.15
2022-08-30T00:37:39.346Z,22.21
2022-08-30T00:40:09.859Z,22.30
2022-08-30T00:42:38.631Z,22.17
2022-08-30T00:45:26.073Z,22.32
2022-08-30T00:47:59.293Z,22.27
2022-08-30T00:50:46.794Z,22.21
2022-08-30T00:53:22.734Z,22.17
2022-08-30T00:55:51.172Z,22.15
2022-08-30T00:58:25.419Z,22.12
2022-08-30T01:00:56.975Z,22.14
2022-08-30T01:03:25.275Z,22.03
2022-08-30T01:05:53.866Z,22.12
2022-08-30T01:08:23.508Z,22.14
2022-08-30T01:10:53.731Z,22.12
2022-08-30T01:13:24.104Z,21.96
2022-08-30T01:15:56.160Z,21.97
2022-08-30T01:18:25.380Z,22.03
2022-08-30T01:21:08.460Z,22.07
2022-08-30T01:23:43.673Z,22.08
2022-08-30T01:26:13.601Z,22.01
2022-08-30T01:28:51.652Z,22.04
2022-08-30T01:31:19.695Z,22.13
2022-08-30T01:33:50.079Z,22.20
2022-08-30T01:36:21.432Z,22.28
2022-08-30T01:38:57.327Z,22.32
2022-08-30T01:41:29.842Z,22.19
2022-08-30T01:44:00.724Z,22.01
2022-08-30T01:46:36.157Z,22.15
2022-08-30T01:49:10.207Z,22.14
2022-08-30T01:51:38.556Z,22.18
2022-08-30T01:54:07.007Z,22.15
2022-08-30T01:56:35.681Z,22.19
2022-08-30T01:59:04.575Z,22.19
2022-08-30T02:01:36.003Z,22.23
2022-08-30T02:04:04.355Z,22.25
2022-08-30T02:06:33.359Z,22.27
2022-08-30T02:09:01.555Z,22.33
2022-08-30T02:11:29.634Z,22.37
2022-08-30T02:13:58.530Z,22.31
2022-08-30T02:16:26.682Z,22.26
2022-08-30T02:18:57.534Z,22.21
2022-08-30T02:21:28.448Z,22.19
2022-08-30T02:23:56.694Z,22.08
2022-08-30T02:26:25.198Z,22.07
2022-08-30T02:28:54.101Z,22.17
2022-08-30T02:31:25.090Z,22.16
2022-08-30T02:33:54.318Z,22.26
2022-08-30T02:36:23.004Z,22.25
2022-08-30T02:38:52.800Z,22.30
2022-08-30T02:41:22.919Z,22.26
2022-08-30T02:43:51.719Z,22.24
2022-08-30T02:46:19.518Z,22.23
2022-08-30T02:48:47.690Z,22.27
2022-08-30T02:51:16.038Z,22.25
2022-08-30T02:53:46.201Z,22.19
2022-08-30T02:56:16.028Z,22.37
2022-08-30T02:58:44.737Z,22.53
2022-08-30T03:01:16.624Z,22.62
2022-08-30T03:03:47.285Z,22.73
2022-08-30T03:06:16.156Z,22.70
2022-08-30T03:08:44.381Z,22.66
2022-08-30T03:11:13.846Z,22.78
2022-08-30T03:13:42.314Z,22.78
2022-08-30T03:16:10.478Z,22.72
2022-08-30T03:18:39.525Z,22.77
2022-08-30T03:21:12.272Z,22.86
2022-08-30T03:23:41.517Z,23.02
2022-08-30T03:26:13.172Z,22.97
2022-08-30T03:28:44.054Z,22.99
2022-08-30T03:31:12.144Z,23.10
2022-08-30T03:33:40.862Z,23.25
2022-08-30T03:36:09.699Z,23.16
2022-08-30T03:38:39.483Z,23.26
2022-08-30T03:41:09.232Z,23.37
2022-08-30T03:43:37.836Z,23.23
2022-08-30T03:46:06.146Z,23.23
2022-08-30T03:48:34.477Z,23.16
2022-08-30T03:51:03.570Z,23.18
2022-08-30T03:53:34.803Z,23.22
2022-08-30T03:56:04.436Z,23.22
2022-08-30T03:58:35.058Z,23.26
2022-08-30T04:01:04.327Z,23.26
2022-08-30T04:03:32.758Z,23.09
2022-08-30T04:06:02.113Z,23.09
2022-08-30T04:08:30.723Z,23.07
2022-08-30T04:11:01.205Z,23.05
2022-08-30T04:13:30.361Z,23.10
2022-08-30T04:16:00.758Z,23.09
2022-08-30T04:18:29.079Z,22.97
2022-08-30T04:20:57.862Z,23.00
2022-08-30T04:23:26.530Z,23.09
2022-08-30T04:25:55.185Z,23.09
2022-08-30T04:28:25.292Z,23.00
2022-08-30T04:31:04.020Z,22.99
2022-08-30T04:33:36.126Z,22.98
2022-08-30T04:36:09.267Z,23.05
2022-08-30T04:38:38.884Z,23.02
2022-08-30T04:41:19.482Z,22.91
2022-08-30T04:43:51.887Z,22.82
2022-08-30T04:46:44.453Z,22.72
2022-08-30T04:49:12.633Z,22.57
2022-08-30T04:51:40.295Z,22.56
2022-08-30T04:54:12.329Z,22.45
2022-08-30T04:56:40.089Z,22.31
2022-08-30T04:59:07.747Z,22.30
2022-08-30T05:01:45.332Z,22.42
2022-08-30T05:04:19.634Z,22.18
2022-08-30T05:06:50.669Z,22.17
2022-08-30T05:09:18.630Z,22.15
2022-08-30T05:11:46.526Z,22.10
2022-08-30T05:14:18.497Z,21.85
2022-08-30T05:16:47.823Z,21.71
2022-08-30T05:19:15.576Z,21.80
2022-08-30T05:21:43.750Z,21.89
2022-08-30T05:24:14.398Z,21.90
2022-08-30T05:26:42.551Z,21.83
2022-08-30T05:29:09.902Z,21.85
2022-08-30T05:31:37.711Z,21.84
2022-08-30T05:34:05.630Z,21.89
2022-08-30T05:36:35.550Z,21.91
2022-08-30T05:39:05.781Z,22.00
2022-08-30T05:41:33.970Z,22.09
2022-08-30T05:44:02.732Z,21.94
2022-08-30T05:49:07.870Z,21.86
2022-08-30T05:51:42.885Z,21.80
2022-08-30T05:54:12.861Z,21.72
2022-08-30T05:56:42.546Z,21.78
2022-08-30T05:59:10.167Z,21.71
2022-08-30T06:01:47.687Z,21.69
2022-08-30T06:04:16.168Z,21.65
2022-08-30T06:06:44.333Z,21.63
2022-08-30T06:09:13.374Z,21.60
2022-08-30T06:11:41.193Z,21.65
2022-08-30T06:14:08.929Z,21.75
2022-08-30T06:16:39.659Z,21.75
2022-08-30T06:19:08.636Z,21.74
2022-08-30T06:21:37.349Z,21.63
2022-08-30T06:24:06.471Z,21.59
2022-08-30T06:26:38.116Z,21.66
2022-08-30T06:29:05.621Z,21.79
2022-08-30T06:31:34.319Z,22.19
2022-08-30T06:34:01.994Z,22.32
2022-08-30T06:36:29.542Z,22.27
2022-08-30T06:38:58.214Z,22.38
2022-08-30T06:41:28.581Z,22.42
2022-08-30T06:43:57.761Z,22.43
2022-08-30T06:46:29.057Z,22.75
2022-08-30T06:48:57.001Z,22.82
2022-08-30T06:51:27.121Z,22.93
2022-08-30T06:53:54.856Z,22.92
2022-08-30T06:56:23.229Z,22.99
2022-08-30T06:58:50.810Z,23.22
2022-08-30T07:01:22.437Z,23.39
2022-08-30T07:03:51.217Z,23.59
2022-08-30T07:06:19.322Z,23.61
2022-08-30T07:08:56.076Z,23.78
2022-08-30T07:12:26.471Z,23.97
2022-08-30T07:14:58.277Z,24.14
2022-08-30T07:17:47.239Z,24.26
2022-08-30T07:20:14.782Z,24.50
2022-08-30T07:22:42.303Z,24.67
2022-08-30T07:25:09.938Z,24.74
2022-08-30T07:27:37.385Z,24.83
2022-08-30T07:30:06.894Z,24.81
2022-08-30T07:32:38.483Z,24.92
2022-08-30T07:35:06.229Z,24.80
2022-08-30T07:37:35.346Z,24.76
2022-08-30T07:40:05.793Z,24.66
2022-08-30T07:42:35.986Z,25.01
2022-08-30T07:45:05.383Z,25.03
2022-08-30T07:47:33.322Z,24.88
2022-08-30T07:50:02.239Z,24.74
2022-08-30T07:52:30.845Z,24.94
2022-08-30T07:54:59.960Z,24.90
2022-08-30T07:57:29.422Z,25.44
2022-08-30T07:59:58.041Z,25.52
2022-08-30T08:02:26.850Z,25.66
2022-08-30T08:04:54.615Z,25.88
2022-08-30T08:07:22.009Z,26.19
2022-08-30T08:09:50.203Z,26.23
2022-08-30T08:12:17.521Z,26.39
2022-08-30T08:14:45.049Z,26.70
2022-08-30T08:17:12.364Z,27.01
2022-08-30T08:19:39.815Z,26.64
2022-08-30T08:22:20.585Z,26.60
2022-08-30T08:24:49.298Z,27.02
2022-08-30T08:27:17.159Z,27.32
2022-08-30T08:29:44.514Z,27.61
2022-08-30T08:32:12.015Z,27.57
2022-08-30T08:34:39.855Z,26.91
2022-08-30T08:37:07.350Z,27.18
2022-08-30T08:39:34.734Z,27.38
2022-08-30T08:42:36.362Z,27.49
2022-08-30T08:45:14.022Z,27.55
2022-08-30T08:47:56.197Z,27.43
2022-08-30T08:50:24.999Z,27.41
2022-08-30T08:53:45.133Z,27.52
2022-08-30T08:56:15.064Z,27.41
2022-08-30T08:58:55.208Z,26.99
2022-08-30T09:01:28.503Z,27.06
2022-08-30T09:04:41.390Z,27.41
2022-08-30T09:07:49.352Z,27.66
2022-08-30T09:10:51.385Z,27.77
2022-08-30T09:13:24.810Z,27.89
2022-08-30T09:15:55.418Z,27.98
2022-08-30T09:18:52.552Z,28.05
2022-08-30T09:21:26.685Z,28.17
2022-08-30T09:24:01.834Z,28.25
2022-08-30T09:26:35.191Z,28.33
2022-08-30T09:29:05.126Z,28.08
2022-08-30T09:32:25.078Z,27.86
2022-08-30T09:34:44.458Z,27.85
2022-08-30T09:37:29.001Z,27.86
2022-08-30T09:39:57.105Z,27.94
2022-08-30T09:42:28.902Z,28.11
2022-08-30T09:45:10.427Z,28.34
2022-08-30T09:47:43.779Z,28.38
2022-08-30T09:50:13.456Z,28.39
2022-08-30T09:53:02.397Z,28.23
2022-08-30T09:55:39.019Z,28.01
2022-08-30T09:58:21.767Z,28.48
2022-08-30T10:01:01.494Z,28.55
2022-08-30T10:03:43.270Z,28.74
2022-08-30T10:06:44.772Z,28.69
2022-08-30T10:09:34.385Z,28.48
2022-08-30T10:12:16.800Z,28.47
2022-08-30T10:14:55.830Z,28.45
2022-08-30T10:17:42.207Z,28.47
2022-08-30T10:20:33.988Z,28.46
2022-08-30T10:23:15.824Z,28.30
2022-08-30T10:26:13.201Z,28.28
2022-08-30T10:28:50.398Z,28.24
2022-08-30T10:31:31.991Z,28.36
2022-08-30T10:34:06.595Z,28.54
2022-08-30T10:36:44.422Z,28.62
2022-08-30T10:39:22.358Z,28.86
2022-08-30T10:41:58.773Z,28.87
2022-08-30T10:44:39.540Z,28.94
2022-08-30T10:47:09.075Z,29.25
2022-08-30T10:49:49.491Z,29.25
2022-08-30T10:52:35.586Z,29.06
2022-08-30T10:55:21.892Z,28.87
2022-08-30T10:57:50.262Z,28.77
2022-08-30T11:00:27.529Z,28.84
2022-08-30T11:03:13.929Z,28.67
2022-08-30T11:05:59.137Z,28.74
2022-08-30T11:08:49.576Z,29.26
2022-08-30T11:12:00.700Z,29.39
2022-08-30T11:14:30.502Z,28.57
2022-08-30T11:17:01.367Z,28.53
2022-08-30T11:19:39.632Z,28.48
2022-08-30T11:22:32.506Z,28.85
2022-08-30T11:25:14.817Z,28.84
2022-08-30T11:27:53.021Z,28.32
2022-08-30T11:30:42.529Z,28.14
2022-08-30T11:36:37.552Z,28.74
2022-08-30T11:39:33.042Z,28.76
2022-08-30T11:42:29.828Z,28.85
2022-08-30T11:45:28.348Z,28.59
2022-08-30T11:47:59.635Z,28.80
2022-08-30T11:50:55.236Z,28.94
2022-08-30T11:53:42.796Z,29.06
2022-08-30T11:56:43.281Z,29.26
2022-08-30T11:59:33.895Z,29.29
2022-08-30T12:02:02.116Z,29.20
2022-08-30T12:05:09.260Z,29.26
2022-08-30T12:08:28.485Z,29.25
2022-08-30T12:15:56.993Z,29.12
2022-08-30T12:18:32.240Z,29.18
2022-08-30T12:21:17.115Z,29.32
2022-08-30T12:23:58.229Z,29.19
2022-08-30T12:26:44.286Z,29.25
2022-08-30T12:29:20.060Z,29.45
2022-08-30T12:35:53.733Z,29.52
2022-08-30T12:38:27.637Z,29.71
2022-08-30T12:41:01.519Z,29.46
2022-08-30T12:43:41.614Z,29.61
2022-08-30T12:46:15.046Z,29.66
2022-08-30T12:48:44.683Z,29.75
2022-08-30T12:51:34.023Z,29.65
2022-08-30T12:54:22.890Z,29.72
2022-08-30T12:56:56.615Z,29.69
2022-08-30T12:59:42.226Z,29.61
2022-08-30T13:02:23.014Z,29.39
2022-08-30T13:04:52.526Z,29.55
2022-08-30T13:07:33.894Z,29.28
2022-08-30T13:10:20.177Z,29.19
2022-08-30T13:13:02.123Z,29.37
2022-08-30T13:15:35.804Z,29.39
2022-08-30T13:18:35.928Z,29.36
2022-08-30T13:21:31.180Z,29.87
2022-08-30T13:24:01.804Z,29.97
2022-08-30T13:26:34.259Z,29.98
2022-08-30T13:29:08.696Z,29.66
2022-08-30T13:31:38.252Z,30.06
2022-08-30T13:34:05.704Z,29.75
2022-08-30T13:36:37.098Z,29.55
2022-08-30T13:39:06.745Z,29.96
2022-08-30T13:41:34.779Z,30.14
2022-08-30T13:44:13.402Z,30.27
2022-08-30T13:46:46.357Z,30.17
2022-08-30T13:52:22.173Z,30.09
2022-08-30T13:54:51.966Z,30.16
2022-08-30T14:00:17.292Z,30.03
2022-08-30T14:02:51.545Z,29.93
2022-08-30T14:05:47.641Z,29.68
2022-08-30T14:11:01.977Z,29.77
2022-08-30T14:13:30.062Z,29.60
2022-08-30T14:18:48.969Z,29.81
2022-08-30T14:21:16.611Z,29.86
2022-08-30T14:23:45.294Z,29.94
2022-08-30T14:26:22.930Z,29.97
2022-08-30T14:28:51.759Z,29.87
2022-08-30T14:31:20.301Z,29.63
2022-08-30T14:33:48.378Z,29.62
2022-08-30T14:36:17.132Z,29.53
2022-08-30T14:38:45.226Z,29.31
2022-08-30T14:41:12.733Z,29.25
2022-08-30T14:43:40.623Z,29.29
2022-08-30T14:46:10.051Z,29.23
2022-08-30T14:48:38.819Z,29.13
2022-08-30T14:51:16.760Z,28.97
2022-08-30T14:53:45.879Z,28.93
2022-08-30T14:56:19.466Z,28.82
2022-08-30T14:58:52.181Z,29.13
2022-08-30T15:01:22.346Z,28.89
2022-08-30T15:03:51.175Z,28.97
2022-08-30T15:06:18.776Z,28.96
2022-08-30T15:08:48.462Z,29.06
2022-08-30T15:11:18.304Z,28.78
2022-08-30T15:13:46.697Z,28.78
2022-08-30T15:16:20.486Z,28.85
2022-08-30T15:18:48.871Z,28.85
2022-08-30T15:21:23.023Z,28.60
2022-08-30T15:23:50.706Z,28.65
2022-08-30T15:26:20.377Z,28.75
2022-08-30T15:28:48.037Z,28.89
2022-08-30T15:31:19.483Z,28.67
2022-08-30T15:33:46.948Z,28.57
2022-08-30T15:36:14.753Z,28.62
2022-08-30T15:38:42.650Z,28.54
2022-08-30T15:41:12.427Z,28.64
2022-08-30T15:43:43.797Z,28.51
2022-08-30T15:46:29.372Z,28.53
2022-08-30T15:49:10.529Z,28.62
2022-08-30T15:51:41.624Z,28.52
2022-08-30T15:54:16.453Z,28.42
2022-08-30T15:56:44.828Z,28.31
2022-08-30T15:59:15.229Z,28.36
2022-08-30T16:01:43.792Z,28.33
2022-08-30T16:04:12.155Z,28.26
2022-08-30T16:06:39.613Z,28.30
2022-08-30T16:09:10.506Z,28.46
2022-08-30T16:11:38.653Z,28.31
2022-08-30T16:14:06.428Z,28.20
2022-08-30T16:16:34.419Z,28.10
2022-08-30T16:19:02.314Z,28.19
2022-08-30T16:21:33.225Z,28.25
2022-08-30T16:24:02.333Z,28.13
2022-08-30T16:26:31.767Z,28.28
2022-08-30T16:29:00.223Z,28.19
2022-08-30T16:31:29.904Z,28.17
2022-08-30T16:34:02.249Z,28.32
2022-08-30T16:36:32.941Z,28.27
2022-08-30T16:39:00.480Z,27.99
2022-08-30T16:41:28.318Z,28.16
2022-08-30T16:43:56.701Z,28.06
2022-08-30T16:46:27.853Z,28.17
2022-08-30T16:48:57.629Z,28.06
2022-08-30T16:51:27.781Z,28.09
2022-08-30T16:53:57.962Z,28.13
2022-08-30T16:56:29.770Z,27.93
2022-08-30T16:59:02.081Z,27.73
2022-08-30T17:01:37.490Z,27.79
2022-08-30T17:04:06.677Z,27.88
2022-08-30T17:06:35.799Z,27.73
2022-08-30T17:09:05.110Z,27.57
2022-08-30T17:11:33.626Z,27.64
2022-08-30T17:14:01.586Z,27.57
2022-08-30T17:16:29.957Z,27.40
2022-08-30T17:19:00.449Z,27.28
2022-08-30T17:21:46.833Z,27.16
2022-08-30T17:24:14.279Z,27.50
2022-08-30T17:26:41.637Z,27.41
2022-08-30T17:29:09.198Z,26.94
2022-08-30T17:31:41.418Z,26.57
2022-08-30T17:34:08.815Z,26.37
2022-08-30T17:36:39.142Z,25.72
2022-08-30T17:39:10.882Z,25.43
2022-08-30T17:41:56.504Z,25.27
2022-08-30T17:44:29.717Z,25.30
2022-08-30T17:46:59.536Z,25.21
2022-08-30T17:49:28.803Z,25.06
2022-08-30T17:51:58.567Z,25.04
2022-08-30T17:54:27.772Z,24.88
2022-08-30T17:56:56.633Z,24.83
2022-08-30T17:59:25.648Z,24.64
2022-08-30T18:01:54.877Z,24.33
2022-08-30T18:04:25.037Z,24.41
2022-08-30T18:06:53.012Z,24.41
2022-08-30T18:09:20.571Z,24.07
2022-08-30T18:11:48.424Z,23.96
2022-08-30T18:14:16.381Z,23.99
2022-08-30T18:16:53.479Z,24.06
2022-08-30T18:19:24.249Z,24.06
2022-08-30T18:21:53.290Z,24.09
2022-08-30T18:24:21.779Z,23.90
2022-08-30T18:26:49.487Z,23.93
2022-08-30T18:29:29.254Z,23.91
2022-08-30T18:32:00.927Z,24.15
2022-08-30T18:34:29.495Z,23.91
2022-08-30T18:36:57.308Z,23.82
2022-08-30T18:39:25.350Z,23.71
2022-08-30T18:41:55.509Z,23.70
2022-08-30T18:44:28.954Z,23.83
2022-08-30T18:47:00.514Z,24.01
2022-08-30T18:49:32.139Z,24.08
2022-08-30T18:52:01.806Z,24.01
2022-08-30T18:54:29.922Z,24.18
2022-08-30T18:56:57.488Z,24.37
2022-08-30T18:59:35.378Z,24.26
2022-08-30T19:02:10.467Z,23.95
2022-08-30T19:04:38.770Z,23.83
2022-08-30T19:07:08.030Z,23.83
2022-08-30T19:09:37.443Z,23.75
2022-08-30T19:12:09.833Z,23.72
2022-08-30T19:14:40.705Z,23.99
2022-08-30T19:17:10.349Z,23.82
2022-08-30T19:19:48.442Z,23.72
2022-08-30T19:22:20.207Z,23.71
2022-08-30T19:24:50.245Z,23.61
2022-08-30T19:27:23.146Z,23.75
2022-08-30T19:30:12.989Z,23.74
2022-08-30T19:32:43.974Z,23.73
2022-08-30T19:35:17.768Z,23.88
2022-08-30T19:37:48.760Z,23.81
2022-08-30T19:40:19.494Z,23.79
2022-08-30T19:42:49.791Z,23.75
2022-08-30T19:45:21.766Z,23.67
2022-08-30T19:47:58.707Z,23.57
2022-08-30T19:50:26.882Z,23.57
2022-08-30T19:52:55.412Z,23.61
2022-08-30T19:55:29.940Z,23.57
2022-08-30T19:57:59.096Z,23.61
2022-08-30T20:00:27.552Z,23.57
2022-08-30T20:03:01.643Z,23.61
2022-08-30T20:05:31.684Z,23.52
2022-08-30T20:08:01.605Z,23.47
2022-08-30T20:10:29.502Z,23.42
2022-08-30T20:12:57.729Z,23.32
2022-08-30T20:15:26.802Z,23.41
2022-08-30T20:18:05.127Z,23.40
2022-08-30T20:20:36.965Z,23.49
2022-08-30T20:23:08.297Z,23.56
2022-08-30T20:25:38.119Z,23.50
2022-08-30T20:28:06.098Z,23.46
2022-08-30T20:30:34.545Z,23.62
2022-08-30T20:33:06.943Z,23.51
2022-08-30T20:35:36.661Z,23.50
2022-08-30T20:38:06.588Z,23.49
2022-08-30T20:40:35.761Z,23.69
2022-08-30T20:43:05.640Z,23.54
2022-08-30T20:45:35.046Z,23.30
2022-08-30T20:48:08.119Z,23.18
2022-08-30T20:50:39.427Z,23.15
2022-08-30T20:53:07.969Z,23.17
2022-08-30T20:55:36.082Z,23.10
2022-08-30T20:58:04.243Z,23.06
2022-08-30T21:00:33.533Z,22.96
2022-08-30T21:03:06.694Z,22.78
2022-08-30T21:05:52.146Z,22.72
2022-08-30T21:08:20.217Z,22.73
2022-08-30T21:11:43.551Z,22.62
2022-08-30T21:15:46.461Z,22.72
2022-08-30T21:18:21.305Z,22.66
2022-08-30T21:24:11.635Z,22.67
2022-08-30T21:26:40.709Z,22.71
2022-08-30T21:29:08.812Z,22.78
2022-08-30T21:31:40.335Z,22.83
2022-08-30T21:34:08.528Z,22.88
2022-08-30T21:36:47.019Z,23.07
2022-08-30T21:39:26.937Z,23.16
2022-08-30T21:42:00.138Z,23.17
2022-08-30T21:44:27.668Z,23.16
2022-08-30T21:46:55.734Z,23.17
2022-08-30T21:49:24.578Z,23.12
2022-08-30T21:51:54.784Z,23.02
2022-08-30T21:54:23.766Z,23.02
2022-08-30T21:56:53.460Z,23.07
2022-08-30T21:59:21.741Z,23.13
2022-08-30T22:01:50.101Z,23.11
2022-08-30T22:04:19.421Z,23.07
2022-08-30T22:06:50.283Z,22.97
2022-08-30T22:09:26.247Z,23.01
2022-08-30T22:11:54.856Z,22.94
2022-08-30T22:14:22.927Z,22.92
2022-08-30T22:16:51.063Z,22.95
2022-08-30T22:19:23.529Z,22.89
2022-08-30T22:22:00.798Z,22.99
2022-08-30T22:24:32.237Z,22.96
2022-08-30T22:27:02.306Z,23.09
2022-08-30T22:29:30.659Z,22.99
2022-08-30T22:31:58.938Z,23.15
2022-08-30T22:34:27.190Z,23.21
2022-08-30T22:36:57.363Z,23.24
2022-08-30T22:39:25.582Z,23.26
2022-08-30T22:41:53.158Z,23.20
2022-08-30T22:44:20.759Z,23.23
2022-08-30T22:46:48.203Z,23.24
2022-08-30T22:49:15.746Z,23.21
2022-08-30T22:51:44.537Z,23.03
2022-08-30T22:54:12.058Z,22.87
2022-08-30T22:56:40.324Z,22.76
2022-08-30T22:59:07.953Z,22.70
2022-08-30T23:01:38.479Z,22.68
2022-08-30T23:04:07.991Z,22.57
2022-08-30T23:06:35.845Z,22.71
2022-08-30T23:09:05.191Z,22.64
2022-08-30T23:11:33.295Z,22.61
2022-08-30T23:14:02.213Z,22.58
2022-08-30T23:16:30.322Z,22.60
2022-08-30T23:18:58.575Z,22.56
2022-08-30T23:21:29.143Z,22.58
2022-08-30T23:24:16.092Z,22.56
2022-08-30T23:27:04.029Z,22.65
2022-08-30T23:29:51.066Z,22.53
2022-08-30T23:32:37.632Z,22.47
2022-08-30T23:35:29.434Z,22.41
2022-08-30T23:38:22.507Z,22.44
2022-08-30T23:41:08.758Z,22.38
2022-08-30T23:43:55.477Z,22.34
2022-08-30T23:46:42.011Z,22.29
2022-08-30T23:49:28.432Z,22.30
2022-08-30T23:52:15.057Z,22.31
2022-08-30T23:55:00.900Z,22.29
2022-08-30T23:57:46.857Z,22.18
